createdAt,value
2018-05-09T00:00:10.378Z,998.54
2018-05-09T00:01:10.383Z,998.54
2018-05-09T00:02:10.388Z,998.52
2018-05-09T00:03:10.391Z,998.52
2018-05-09T00:04:10.395Z,998.52
2018-05-09T00:05:10.398Z,998.52
2018-05-09T00:06:10.403Z,998.52
2018-05-09T00:07:10.407Z,998.53
2018-05-09T00:08:10.410Z,998.50
2018-05-09T00:09:10.416Z,998.51
2018-05-09T00:10:10.420Z,998.47
2018-05-09T00:11:10.422Z,998.50
2018-05-09T00:12:10.427Z,998.51
2018-05-09T00:13:10.429Z,998.47
2018-05-09T00:14:10.434Z,998.50
2018-05-09T00:15:10.441Z,998.45
2018-05-09T00:16:10.440Z,998.52
2018-05-09T00:17:10.444Z,998.49
2018-05-09T00:18:10.448Z,998.46
2018-05-09T00:19:10.452Z,998.46
2018-05-09T00:20:10.457Z,998.47
2018-05-09T00:21:10.495Z,998.49
2018-05-09T00:22:10.463Z,998.49
2018-05-09T00:23:10.467Z,998.45
2018-05-09T00:24:10.470Z,998.44
2018-05-09T00:25:10.476Z,998.49
2018-05-09T00:26:10.480Z,998.46
2018-05-09T00:27:10.481Z,998.44
2018-05-09T00:28:10.484Z,998.44
2018-05-09T00:29:10.488Z,998.46
2018-05-09T00:30:10.492Z,998.44
2018-05-09T00:31:10.495Z,998.44
2018-05-09T00:32:10.499Z,998.40
2018-05-09T00:33:10.505Z,998.42
2018-05-09T00:34:10.506Z,998.43
2018-05-09T00:35:10.519Z,998.42
2018-05-09T00:36:10.513Z,998.41
2018-05-09T00:37:10.517Z,998.41
2018-05-09T00:38:10.520Z,998.44
2018-05-09T00:39:10.524Z,998.43
2018-05-09T00:40:10.527Z,998.43
2018-05-09T00:41:10.531Z,998.43
2018-05-09T00:42:10.540Z,998.42
2018-05-09T00:43:10.538Z,998.36
2018-05-09T00:44:10.540Z,998.37
2018-05-09T00:45:10.544Z,998.37
2018-05-09T00:46:10.548Z,998.38
2018-05-09T00:47:10.552Z,998.37
2018-05-09T00:48:10.554Z,998.35
2018-05-09T00:49:10.558Z,998.35
2018-05-09T00:50:10.616Z,998.34
2018-05-09T00:51:10.565Z,998.33
2018-05-09T00:52:10.568Z,998.34
2018-05-09T00:53:10.572Z,998.31
2018-05-09T00:54:10.575Z,998.28
2018-05-09T00:55:10.578Z,998.30
2018-05-09T00:56:10.580Z,998.28
2018-05-09T00:57:10.584Z,998.30
2018-05-09T00:58:10.587Z,998.28
2018-05-09T00:59:10.591Z,998.28
2018-05-09T01:00:10.593Z,998.24
2018-05-09T01:01:10.596Z,998.22
2018-05-09T01:02:10.601Z,998.27
2018-05-09T01:03:10.604Z,998.25
2018-05-09T01:04:10.606Z,998.22
2018-05-09T01:05:10.610Z,998.23
2018-05-09T01:06:10.625Z,998.18
2018-05-09T01:07:10.617Z,998.15
2018-05-09T01:08:10.618Z,998.17
2018-05-09T01:09:10.622Z,998.16
2018-05-09T01:10:10.628Z,998.12
2018-05-09T01:11:10.629Z,998.15
2018-05-09T01:12:10.631Z,998.15
2018-05-09T01:13:10.634Z,998.14
2018-05-09T01:14:10.637Z,998.16
2018-05-09T01:15:10.641Z,998.14
2018-05-09T01:16:10.642Z,998.11
2018-05-09T01:17:10.645Z,998.12
2018-05-09T01:18:10.649Z,998.12
2018-05-09T01:19:10.652Z,998.13
2018-05-09T01:20:10.655Z,998.11
2018-05-09T01:21:10.657Z,998.11
2018-05-09T01:22:10.660Z,998.07
2018-05-09T01:23:10.664Z,998.07
2018-05-09T01:24:10.666Z,998.11
2018-05-09T01:25:10.670Z,998.06
2018-05-09T01:26:10.671Z,998.06
2018-05-09T01:27:10.673Z,998.06
2018-05-09T01:28:10.676Z,998.06
2018-05-09T01:29:10.678Z,998.04
2018-05-09T01:30:10.683Z,998.06
2018-05-09T01:31:10.685Z,998.06
2018-05-09T01:32:10.690Z,998.03
2018-05-09T01:33:10.689Z,998.09
2018-05-09T01:34:10.692Z,998.08
2018-05-09T01:35:10.696Z,998.09
2018-05-09T01:36:10.697Z,998.07
2018-05-09T01:37:10.705Z,998.05
2018-05-09T01:38:10.703Z,998.05
2018-05-09T01:39:10.706Z,998.05
2018-05-09T01:40:10.708Z,998.04
2018-05-09T01:41:10.711Z,998.04
2018-05-09T01:42:10.713Z,998.03
2018-05-09T01:43:10.717Z,998.06
2018-05-09T01:44:10.722Z,998.03
2018-05-09T01:45:10.721Z,998.03
2018-05-09T01:46:10.724Z,998.06
2018-05-09T01:47:10.727Z,998.00
2018-05-09T01:48:10.729Z,998.00
2018-05-09T01:49:10.733Z,997.99
2018-05-09T01:50:10.734Z,998.01
2018-05-09T01:51:10.738Z,998.04
2018-05-09T01:52:10.739Z,998.02
2018-05-09T01:53:10.742Z,997.99
2018-05-09T01:54:10.745Z,998.03
2018-05-09T01:55:10.747Z,997.98
2018-05-09T01:56:10.749Z,998.00
2018-05-09T01:57:10.750Z,997.99
2018-05-09T01:58:10.755Z,997.99
2018-05-09T01:59:10.757Z,997.96
2018-05-09T02:00:10.759Z,998.01
2018-05-09T02:01:10.761Z,997.97
2018-05-09T02:02:10.767Z,997.99
2018-05-09T02:03:10.766Z,997.99
2018-05-09T02:04:10.768Z,998.03
2018-05-09T02:05:10.770Z,998.00
2018-05-09T02:06:10.829Z,998.00
2018-05-09T02:07:10.776Z,998.04
2018-05-09T02:08:10.777Z,998.03
2018-05-09T02:09:10.778Z,998.04
2018-05-09T02:10:10.782Z,998.01
2018-05-09T02:11:10.790Z,998.06
2018-05-09T02:12:10.786Z,998.03
2018-05-09T02:13:10.792Z,998.04
2018-05-09T02:14:10.799Z,998.07
2018-05-09T02:15:10.841Z,998.06
2018-05-09T02:16:10.796Z,998.07
2018-05-09T02:17:10.802Z,998.10
2018-05-09T02:18:10.800Z,998.09
2018-05-09T02:19:10.804Z,998.08
2018-05-09T02:20:10.804Z,998.09
2018-05-09T02:21:10.807Z,998.03
2018-05-09T02:22:10.809Z,998.08
2018-05-09T02:23:10.811Z,998.09
2018-05-09T02:24:10.930Z,998.10
2018-05-09T02:25:10.816Z,998.04
2018-05-09T02:26:10.817Z,998.07
2018-05-09T02:27:10.820Z,998.02
2018-05-09T02:28:10.822Z,998.01
2018-05-09T02:29:10.825Z,998.01
2018-05-09T02:30:10.832Z,997.98
2018-05-09T02:31:10.859Z,998.01
2018-05-09T02:32:10.831Z,997.97
2018-05-09T02:33:10.832Z,998.00
2018-05-09T02:34:10.836Z,998.01
2018-05-09T02:35:10.837Z,997.98
2018-05-09T02:36:10.840Z,998.00
2018-05-09T02:37:10.844Z,997.99
2018-05-09T02:38:10.846Z,997.99
2018-05-09T02:39:10.848Z,997.98
2018-05-09T02:40:10.849Z,997.94
2018-05-09T02:41:10.855Z,997.93
2018-05-09T02:42:10.854Z,997.93
2018-05-09T02:43:10.854Z,997.94
2018-05-09T02:44:10.856Z,997.97
2018-05-09T02:45:10.858Z,997.98
2018-05-09T02:46:10.861Z,997.97
2018-05-09T02:47:10.862Z,997.93
2018-05-09T02:48:10.865Z,997.94
2018-05-09T02:49:10.866Z,997.95
2018-05-09T02:50:10.872Z,997.98
2018-05-09T02:51:10.870Z,997.94
2018-05-09T02:52:10.872Z,997.92
2018-05-09T02:53:10.878Z,997.92
2018-05-09T02:54:10.879Z,997.92
2018-05-09T02:55:10.878Z,997.90
2018-05-09T02:56:10.880Z,997.89
2018-05-09T02:57:10.882Z,997.89
2018-05-09T02:58:10.888Z,997.89
2018-05-09T02:59:10.886Z,997.87
2018-05-09T03:00:10.888Z,997.92
2018-05-09T03:01:10.890Z,997.93
2018-05-09T03:02:10.893Z,997.85
2018-05-09T03:03:10.894Z,997.91
2018-05-09T03:04:10.895Z,997.86
2018-05-09T03:05:10.896Z,997.90
2018-05-09T03:06:10.899Z,997.87
2018-05-09T03:07:10.901Z,997.89
2018-05-09T03:08:10.902Z,997.88
2018-05-09T03:09:10.903Z,997.90
2018-05-09T03:10:10.907Z,997.89
2018-05-09T03:11:10.912Z,997.87
2018-05-09T03:12:10.909Z,997.89
2018-05-09T03:13:10.912Z,997.88
2018-05-09T03:14:10.915Z,997.93
2018-05-09T03:15:10.915Z,997.92
2018-05-09T03:16:10.920Z,997.98
2018-05-09T03:17:10.918Z,997.95
2018-05-09T03:18:10.920Z,997.92
2018-05-09T03:19:10.922Z,997.92
2018-05-09T03:20:10.922Z,998.00
2018-05-09T03:21:10.931Z,997.99
2018-05-09T03:22:10.932Z,997.99
2018-05-09T03:23:10.929Z,997.99
2018-05-09T03:24:10.930Z,998.01
2018-05-09T03:25:10.932Z,998.01
2018-05-09T03:26:10.933Z,998.01
2018-05-09T03:27:10.935Z,997.98
2018-05-09T03:28:10.937Z,998.04
2018-05-09T03:29:10.938Z,998.04
2018-05-09T03:30:10.945Z,998.06
2018-05-09T03:31:10.946Z,998.06
2018-05-09T03:32:10.946Z,998.09
2018-05-09T03:33:10.947Z,998.04
2018-05-09T03:34:10.954Z,998.09
2018-05-09T03:35:10.950Z,998.07
2018-05-09T03:36:10.951Z,998.02
2018-05-09T03:37:10.954Z,998.05
2018-05-09T03:38:10.954Z,998.02
2018-05-09T03:39:10.958Z,998.03
2018-05-09T03:40:10.957Z,997.99
2018-05-09T03:41:10.967Z,997.99
2018-05-09T03:42:10.961Z,997.99
2018-05-09T03:43:10.964Z,998.00
2018-05-09T03:44:10.965Z,997.99
2018-05-09T03:45:10.967Z,997.96
2018-05-09T03:46:10.969Z,997.98
2018-05-09T03:47:10.971Z,997.99
2018-05-09T03:48:10.972Z,997.99
2018-05-09T03:49:10.973Z,998.04
2018-05-09T03:50:10.975Z,998.05
2018-05-09T03:51:10.977Z,998.01
2018-05-09T03:52:10.979Z,998.02
2018-05-09T03:53:11.015Z,997.99
2018-05-09T03:54:10.982Z,998.03
2018-05-09T03:55:10.984Z,997.99
2018-05-09T03:56:10.985Z,998.00
2018-05-09T03:57:10.987Z,998.00
2018-05-09T03:58:10.989Z,997.99
2018-05-09T03:59:10.990Z,997.98
2018-05-09T04:00:10.996Z,997.99
2018-05-09T04:01:10.993Z,997.99
2018-05-09T04:02:10.996Z,997.99
2018-05-09T04:03:10.997Z,998.01
2018-05-09T04:04:10.999Z,998.03
2018-05-09T04:05:11.000Z,998.03
2018-05-09T04:06:11.003Z,998.05
2018-05-09T04:07:11.004Z,998.02
2018-05-09T04:08:11.006Z,998.08
2018-05-09T04:09:11.007Z,998.05
2018-05-09T04:10:11.009Z,998.01
2018-05-09T04:11:11.011Z,998.10
2018-05-09T04:12:11.010Z,998.10
2018-05-09T04:13:11.017Z,998.11
2018-05-09T04:14:11.015Z,998.11
2018-05-09T04:15:11.016Z,998.16
2018-05-09T04:16:11.017Z,998.19
2018-05-09T04:17:11.020Z,998.21
2018-05-09T04:18:11.021Z,998.21
2018-05-09T04:19:11.023Z,998.18
2018-05-09T04:20:11.023Z,998.21
2018-05-09T04:21:11.026Z,998.22
2018-05-09T04:22:11.028Z,998.21
2018-05-09T04:23:11.032Z,998.23
2018-05-09T04:24:11.032Z,998.25
2018-05-09T04:25:11.032Z,998.21
2018-05-09T04:26:11.033Z,998.23
2018-05-09T04:27:11.036Z,998.21
2018-05-09T04:28:11.111Z,998.22
2018-05-09T04:29:11.038Z,998.25
2018-05-09T04:30:11.041Z,998.22
2018-05-09T04:31:11.042Z,998.27
2018-05-09T04:32:11.043Z,998.26
2018-05-09T04:33:11.045Z,998.28
2018-05-09T04:34:11.047Z,998.22
2018-05-09T04:35:11.049Z,998.26
2018-05-09T04:36:11.073Z,998.23
2018-05-09T04:37:11.051Z,998.26
2018-05-09T04:38:11.053Z,998.24
2018-05-09T04:39:11.055Z,998.23
2018-05-09T04:40:11.054Z,998.26
2018-05-09T04:41:11.057Z,998.23
2018-05-09T04:42:11.063Z,998.24
2018-05-09T04:43:11.061Z,998.28
2018-05-09T04:44:11.061Z,998.24
2018-05-09T04:45:11.068Z,998.27
2018-05-09T04:46:11.065Z,998.28
2018-05-09T04:47:11.067Z,998.27
2018-05-09T04:48:11.067Z,998.29
2018-05-09T04:49:11.112Z,998.29
2018-05-09T04:50:11.070Z,998.22
2018-05-09T04:51:11.130Z,998.25
2018-05-09T04:52:11.073Z,998.22
2018-05-09T04:53:11.075Z,998.23
2018-05-09T04:54:11.079Z,998.28
2018-05-09T04:55:11.078Z,998.28
2018-05-09T04:56:11.079Z,998.23
2018-05-09T04:57:11.082Z,998.29
2018-05-09T04:58:11.084Z,998.29
2018-05-09T04:59:11.087Z,998.27
2018-05-09T05:00:11.087Z,998.26
2018-05-09T05:01:11.091Z,998.28
2018-05-09T05:02:11.090Z,998.26
2018-05-09T05:03:11.093Z,998.26
2018-05-09T05:04:11.094Z,998.21
2018-05-09T05:05:11.095Z,998.28
2018-05-09T05:06:11.097Z,998.27
2018-05-09T05:07:11.099Z,998.24
2018-05-09T05:08:11.100Z,998.28
2018-05-09T05:09:11.103Z,998.30
2018-05-09T05:10:11.104Z,998.30
2018-05-09T05:11:11.111Z,998.33
2018-05-09T05:12:11.107Z,998.31
2018-05-09T05:13:11.110Z,998.31
2018-05-09T05:14:11.112Z,998.32
2018-05-09T05:15:11.116Z,998.30
2018-05-09T05:16:11.120Z,998.32
2018-05-09T05:17:11.119Z,998.30
2018-05-09T05:18:11.121Z,998.28
2018-05-09T05:19:11.124Z,998.32
2018-05-09T05:20:11.124Z,998.32
2018-05-09T05:21:11.126Z,998.35
2018-05-09T05:22:11.129Z,998.37
2018-05-09T05:23:11.133Z,998.39
2018-05-09T05:24:11.132Z,998.38
2018-05-09T05:25:11.138Z,998.40
2018-05-09T05:26:11.139Z,998.42
2018-05-09T05:27:11.182Z,998.39
2018-05-09T05:28:11.143Z,998.42
2018-05-09T05:29:11.146Z,998.38
2018-05-09T05:30:11.147Z,998.41
2018-05-09T05:31:11.151Z,998.43
2018-05-09T05:32:11.153Z,998.40
2018-05-09T05:33:11.155Z,998.43
2018-05-09T05:34:11.158Z,998.44
2018-05-09T05:35:11.166Z,998.42
2018-05-09T05:36:11.163Z,998.46
2018-05-09T05:37:11.166Z,998.44
2018-05-09T05:38:11.176Z,998.49
2018-05-09T05:39:11.172Z,998.51
2018-05-09T05:40:11.174Z,998.49
2018-05-09T05:41:11.176Z,998.51
2018-05-09T05:42:11.180Z,998.53
2018-05-09T05:43:11.183Z,998.55
2018-05-09T05:44:11.184Z,998.53
2018-05-09T05:45:11.314Z,998.55
2018-05-09T05:46:11.192Z,998.56
2018-05-09T05:47:11.236Z,998.58
2018-05-09T05:48:11.196Z,998.54
2018-05-09T05:49:11.200Z,998.54
2018-05-09T05:50:11.203Z,998.52
2018-05-09T05:51:11.206Z,998.58
2018-05-09T05:52:11.209Z,998.48
2018-05-09T05:53:11.212Z,998.47
2018-05-09T05:54:11.215Z,998.46
2018-05-09T05:55:11.218Z,998.47
2018-05-09T05:56:11.310Z,998.47
2018-05-09T05:57:11.225Z,998.45
2018-05-09T05:58:11.228Z,998.46
2018-05-09T05:59:11.231Z,998.48
2018-05-09T06:00:11.234Z,998.48
2018-05-09T06:01:11.241Z,998.50
2018-05-09T06:02:11.242Z,998.50
2018-05-09T06:03:11.245Z,998.48
2018-05-09T06:04:11.252Z,998.51
2018-05-09T06:05:11.252Z,998.52
2018-05-09T06:06:11.255Z,998.49
2018-05-09T06:07:11.259Z,998.47
2018-05-09T06:08:11.261Z,998.47
2018-05-09T06:09:11.266Z,998.45
2018-05-09T06:10:11.272Z,998.43
2018-05-09T06:11:11.273Z,998.43
2018-05-09T06:12:11.277Z,998.44
2018-05-09T06:13:11.280Z,998.43
2018-05-09T06:14:11.290Z,998.44
2018-05-09T06:15:11.295Z,998.46
2018-05-09T06:16:11.291Z,998.52
2018-05-09T06:17:11.386Z,998.49
2018-05-09T06:18:11.300Z,998.49
2018-05-09T06:19:11.304Z,998.52
2018-05-09T06:20:11.307Z,998.50
2018-05-09T06:21:11.310Z,998.53
2018-05-09T06:22:11.315Z,998.51
2018-05-09T06:23:11.320Z,998.53
2018-05-09T06:24:11.397Z,998.57
2018-05-09T06:25:11.329Z,998.53
2018-05-09T06:26:11.331Z,998.58
2018-05-09T06:27:11.339Z,998.54
2018-05-09T06:28:11.338Z,998.54
2018-05-09T06:29:11.343Z,998.52
2018-05-09T06:30:11.348Z,998.53
2018-05-09T06:31:11.351Z,998.52
2018-05-09T06:32:11.354Z,998.56
2018-05-09T06:33:11.359Z,998.54
2018-05-09T06:34:11.364Z,998.54
2018-05-09T06:35:11.370Z,998.55
2018-05-09T06:36:11.373Z,998.57
2018-05-09T06:37:11.381Z,998.57
2018-05-09T06:38:11.382Z,998.57
2018-05-09T06:39:11.387Z,998.55
2018-05-09T06:40:11.389Z,998.62
2018-05-09T06:41:11.395Z,998.61
2018-05-09T06:42:11.398Z,998.64
2018-05-09T06:43:11.404Z,998.69
2018-05-09T06:44:11.408Z,998.70
2018-05-09T06:45:11.413Z,998.65
2018-05-09T06:46:11.418Z,998.63
2018-05-09T06:47:11.423Z,998.67
2018-05-09T06:48:11.427Z,998.67
2018-05-09T06:49:11.431Z,998.66
2018-05-09T06:50:11.437Z,998.63
2018-05-09T06:51:11.441Z,998.66
2018-05-09T06:52:11.444Z,998.63
2018-05-09T06:53:11.450Z,998.62
2018-05-09T06:54:11.461Z,998.66
2018-05-09T06:55:11.460Z,998.70
2018-05-09T06:56:11.465Z,998.69
2018-05-09T06:57:11.474Z,998.72
2018-05-09T06:58:11.475Z,998.73
2018-05-09T06:59:11.481Z,998.73
2018-05-09T07:00:11.485Z,998.73
2018-05-09T07:01:11.490Z,998.77
2018-05-09T07:02:11.495Z,998.77
2018-05-09T07:03:11.502Z,998.75
2018-05-09T07:04:11.506Z,998.74
2018-05-09T07:05:11.512Z,998.75
2018-05-09T07:06:11.545Z,998.77
2018-05-09T07:07:11.521Z,998.74
2018-05-09T07:08:11.525Z,998.73
2018-05-09T07:09:11.531Z,998.76
2018-05-09T07:10:11.537Z,998.76
2018-05-09T07:11:11.541Z,998.78
2018-05-09T07:12:11.546Z,998.73
2018-05-09T07:13:11.553Z,998.78
2018-05-09T07:14:11.558Z,998.76
2018-05-09T07:15:11.563Z,998.77
2018-05-09T07:16:11.569Z,998.77
2018-05-09T07:17:11.574Z,998.79
2018-05-09T07:18:11.579Z,998.80
2018-05-09T07:19:11.585Z,998.77
2018-05-09T07:20:11.590Z,998.80
2018-05-09T07:21:11.599Z,998.77
2018-05-09T07:22:11.674Z,998.74
2018-05-09T07:23:11.636Z,998.73
2018-05-09T07:24:11.613Z,998.76
2018-05-09T07:25:11.617Z,998.76
2018-05-09T07:26:11.622Z,998.78
2018-05-09T07:27:11.629Z,998.74
2018-05-09T07:28:11.638Z,998.76
2018-05-09T07:29:11.640Z,998.74
2018-05-09T07:30:11.646Z,998.74
2018-05-09T07:31:11.652Z,998.77
2018-05-09T07:32:11.662Z,998.72
2018-05-09T07:33:11.661Z,998.73
2018-05-09T07:34:11.671Z,998.70
2018-05-09T07:35:11.678Z,998.70
2018-05-09T07:36:11.680Z,998.69
2018-05-09T07:37:11.685Z,998.65
2018-05-09T07:38:11.692Z,998.69
2018-05-09T07:39:11.700Z,998.68
2018-05-09T07:40:11.704Z,998.70
2018-05-09T07:41:11.709Z,998.73
2018-05-09T07:42:11.797Z,998.70
2018-05-09T07:43:11.723Z,998.74
2018-05-09T07:44:11.728Z,998.73
2018-05-09T07:45:11.733Z,998.77
2018-05-09T07:46:11.741Z,998.73
2018-05-09T07:47:11.747Z,998.77
2018-05-09T07:48:11.752Z,998.85
2018-05-09T07:49:11.759Z,998.80
2018-05-09T07:50:11.766Z,999.01
2018-05-09T07:51:11.773Z,999.43
2018-05-09T07:52:11.778Z,999.66
2018-05-09T07:53:11.785Z,999.78
2018-05-09T07:54:11.794Z,999.81
2018-05-09T07:55:11.803Z,999.89
2018-05-09T07:56:11.811Z,999.88
2018-05-09T07:57:11.820Z,999.87
2018-05-09T07:58:11.830Z,999.87
2018-05-09T07:59:11.840Z,999.89
2018-05-09T08:00:11.849Z,999.89
2018-05-09T08:01:11.861Z,999.91
2018-05-09T08:02:11.872Z,999.89
2018-05-09T08:03:11.884Z,999.91
2018-05-09T08:04:11.896Z,999.91
2018-05-09T08:05:11.907Z,999.87
2018-05-09T08:06:11.921Z,999.88
2018-05-09T08:07:11.937Z,999.87
2018-05-09T08:08:11.946Z,999.86
2018-05-09T08:09:11.962Z,999.89
2018-05-09T08:10:11.972Z,999.90
2018-05-09T08:11:11.986Z,999.89
2018-05-09T08:12:11.998Z,999.90
2018-05-09T08:13:12.014Z,999.86
2018-05-09T08:14:12.027Z,999.87
2018-05-09T08:15:12.041Z,999.85
2018-05-09T08:16:12.059Z,999.82
2018-05-09T08:17:12.069Z,999.83
2018-05-09T08:18:12.085Z,999.78
2018-05-09T08:19:12.100Z,999.80
2018-05-09T08:20:12.119Z,999.76
2018-05-09T08:21:12.129Z,999.70
2018-05-09T08:22:12.146Z,999.62
2018-05-09T08:23:12.160Z,999.55
2018-05-09T08:24:12.175Z,999.51
2018-05-09T08:25:12.190Z,999.46
2018-05-09T08:26:12.206Z,999.47
2018-05-09T08:27:12.222Z,999.53
2018-05-09T08:28:12.238Z,999.50
2018-05-09T08:29:12.254Z,999.49
2018-05-09T08:30:12.272Z,999.45
2018-05-09T08:31:12.286Z,999.47
2018-05-09T08:32:12.301Z,999.48
2018-05-09T08:33:12.317Z,999.49
2018-05-09T08:34:12.334Z,999.48
2018-05-09T08:35:12.351Z,999.51
2018-05-09T08:36:12.383Z,999.51
2018-05-09T08:37:12.384Z,999.53
2018-05-09T08:38:12.400Z,999.54
2018-05-09T08:39:12.418Z,999.49
2018-05-09T08:40:12.433Z,999.49
2018-05-09T08:41:12.450Z,999.53
2018-05-09T08:42:12.468Z,999.52
2018-05-09T08:43:12.511Z,999.51
2018-05-09T08:44:12.500Z,999.56
2018-05-09T08:45:12.519Z,999.57
2018-05-09T08:46:12.537Z,999.58
2018-05-09T08:47:12.555Z,999.56
2018-05-09T08:48:12.570Z,999.60
2018-05-09T08:49:12.590Z,999.55
2018-05-09T08:50:12.609Z,999.55
2018-05-09T08:51:12.624Z,999.56
2018-05-09T08:52:12.641Z,999.58
2018-05-09T08:53:12.659Z,999.58
2018-05-09T08:54:12.681Z,999.56
2018-05-09T08:55:12.695Z,999.55
2018-05-09T08:56:12.711Z,999.61
2018-05-09T08:57:12.731Z,999.61
2018-05-09T08:58:12.748Z,999.60
2018-05-09T08:59:12.767Z,999.56
2018-05-09T09:00:12.783Z,999.61
2018-05-09T09:01:12.802Z,999.59
2018-05-09T09:02:12.819Z,999.66
2018-05-09T09:03:12.838Z,999.65
2018-05-09T09:04:12.855Z,999.66
2018-05-09T09:05:12.873Z,999.66
2018-05-09T09:06:12.892Z,999.66
2018-05-09T09:07:12.910Z,999.62
2018-05-09T09:08:12.928Z,999.63
2018-05-09T09:09:12.945Z,999.65
2018-05-09T09:10:12.964Z,999.64
2018-05-09T09:11:12.982Z,999.61
2018-05-09T09:12:13.000Z,999.62
2018-05-09T09:13:13.018Z,999.64
2018-05-09T09:14:13.037Z,999.68
2018-05-09T09:15:13.076Z,999.66
2018-05-09T09:16:13.074Z,999.70
2018-05-09T09:17:13.091Z,999.70
2018-05-09T09:18:13.114Z,999.75
2018-05-09T09:19:13.143Z,999.74
2018-05-09T09:20:13.146Z,999.75
2018-05-09T09:21:13.164Z,999.79
2018-05-09T09:22:13.183Z,999.80
2018-05-09T09:23:13.201Z,999.79
2018-05-09T09:24:13.218Z,999.80
2018-05-09T09:25:13.237Z,999.77
2018-05-09T09:26:13.255Z,999.74
2018-05-09T09:27:13.280Z,999.74
2018-05-09T09:28:13.290Z,999.75
2018-05-09T09:29:13.413Z,999.76
2018-05-09T09:30:13.328Z,999.76
2018-05-09T09:31:13.346Z,999.75
2018-05-09T09:32:13.363Z,999.73
2018-05-09T09:33:13.381Z,999.75
2018-05-09T09:34:13.399Z,999.74
2018-05-09T09:35:13.418Z,999.72
2018-05-09T09:36:13.435Z,999.73
2018-05-09T09:37:13.453Z,999.69
2018-05-09T09:38:13.472Z,999.70
2018-05-09T09:39:13.490Z,999.68
2018-05-09T09:40:13.507Z,999.70
2018-05-09T09:41:13.526Z,999.69
2018-05-09T09:42:13.545Z,999.70
2018-05-09T09:43:13.562Z,999.70
2018-05-09T09:44:13.580Z,999.70
2018-05-09T09:45:13.597Z,999.67
2018-05-09T09:46:13.616Z,999.66
2018-05-09T09:47:13.634Z,999.70
2018-05-09T09:48:13.651Z,999.63
2018-05-09T09:49:13.671Z,999.66
2018-05-09T09:50:13.689Z,999.63
2018-05-09T09:51:13.707Z,999.60
2018-05-09T09:52:13.725Z,999.62
2018-05-09T09:53:13.743Z,999.61
2018-05-09T09:54:13.762Z,999.62
2018-05-09T09:55:13.780Z,999.57
2018-05-09T09:56:13.855Z,999.56
2018-05-09T09:57:13.816Z,999.54
2018-05-09T09:58:13.835Z,999.49
2018-05-09T09:59:13.854Z,999.53
2018-05-09T10:00:13.870Z,999.46
2018-05-09T10:01:13.889Z,999.46
2018-05-09T10:02:13.908Z,999.46
2018-05-09T10:03:13.928Z,999.44
2018-05-09T10:04:13.948Z,999.43
2018-05-09T10:05:13.962Z,999.38
2018-05-09T10:06:13.980Z,999.37
2018-05-09T10:07:13.999Z,999.37
2018-05-09T10:08:14.018Z,999.34
2018-05-09T10:09:14.035Z,999.32
2018-05-09T10:10:14.054Z,999.34
2018-05-09T10:11:14.073Z,999.31
2018-05-09T10:12:14.089Z,999.33
2018-05-09T10:13:14.114Z,999.27
2018-05-09T10:14:14.127Z,999.28
2018-05-09T10:15:14.146Z,999.27
2018-05-09T10:16:14.179Z,999.26
2018-05-09T10:17:14.182Z,999.25
2018-05-09T10:18:14.201Z,999.26
2018-05-09T10:19:14.219Z,999.30
2018-05-09T10:20:14.237Z,999.27
2018-05-09T10:21:14.255Z,999.31
2018-05-09T10:22:14.275Z,999.31
2018-05-09T10:23:14.350Z,999.27
2018-05-09T10:24:14.309Z,999.23
2018-05-09T10:25:14.328Z,999.22
2018-05-09T10:26:14.345Z,999.20
2018-05-09T10:27:14.365Z,999.13
2018-05-09T10:28:14.381Z,999.14
2018-05-09T10:29:14.399Z,999.11
2018-05-09T10:30:14.417Z,999.07
2018-05-09T10:31:14.435Z,999.11
2018-05-09T10:32:14.457Z,999.06
2018-05-09T10:33:14.470Z,999.01
2018-05-09T10:34:14.488Z,999.08
2018-05-09T10:35:14.505Z,999.01
2018-05-09T10:36:14.522Z,999.01
2018-05-09T10:37:14.540Z,998.98
2018-05-09T10:38:14.558Z,998.97
2018-05-09T10:39:14.576Z,999.00
2018-05-09T10:40:14.592Z,998.94
2018-05-09T10:41:14.610Z,998.89
2018-05-09T10:42:14.627Z,998.87
2018-05-09T10:43:14.644Z,998.86
2018-05-09T10:44:14.661Z,998.85
2018-05-09T10:45:14.680Z,998.84
2018-05-09T10:46:14.697Z,998.83
2018-05-09T10:47:14.714Z,998.88
2018-05-09T10:48:14.733Z,998.89
2018-05-09T10:49:14.747Z,998.87
2018-05-09T10:50:14.765Z,998.84
2018-05-09T10:51:14.783Z,998.89
2018-05-09T10:52:14.799Z,998.82
2018-05-09T10:53:14.816Z,998.83
2018-05-09T10:54:14.833Z,998.82
2018-05-09T10:55:14.849Z,998.78
2018-05-09T10:56:14.866Z,998.85
2018-05-09T10:57:14.887Z,998.86
2018-05-09T10:58:14.900Z,998.82
2018-05-09T10:59:14.917Z,998.79
2018-05-09T11:00:14.933Z,998.83
2018-05-09T11:01:14.951Z,998.77
2018-05-09T11:02:14.968Z,998.81
2018-05-09T11:03:14.984Z,998.77
2018-05-09T11:04:15.000Z,998.77
2018-05-09T11:05:15.020Z,998.76
2018-05-09T11:06:15.033Z,998.62
2018-05-09T11:07:15.052Z,998.38
2018-05-09T11:08:15.065Z,998.28
2018-05-09T11:09:15.081Z,998.32
2018-05-09T11:10:15.101Z,998.41
2018-05-09T11:11:15.114Z,998.45
2018-05-09T11:12:15.129Z,998.34
2018-05-09T11:13:15.145Z,998.20
2018-05-09T11:14:15.160Z,998.11
2018-05-09T11:15:15.177Z,998.10
2018-05-09T11:16:15.192Z,998.10
2018-05-09T11:17:15.208Z,998.15
2018-05-09T11:18:15.223Z,998.14
2018-05-09T11:19:15.239Z,998.14
2018-05-09T11:20:15.253Z,998.14
2018-05-09T11:21:15.273Z,998.16
2018-05-09T11:22:15.284Z,998.11
2018-05-09T11:23:15.298Z,998.09
2018-05-09T11:24:15.396Z,998.12
2018-05-09T11:25:15.327Z,998.05
2018-05-09T11:26:15.341Z,998.15
2018-05-09T11:27:15.355Z,998.09
2018-05-09T11:28:15.369Z,998.06
2018-05-09T11:29:15.383Z,998.02
2018-05-09T11:30:15.397Z,997.96
2018-05-09T11:31:15.417Z,997.95
2018-05-09T11:32:15.428Z,997.94
2018-05-09T11:33:15.438Z,997.95
2018-05-09T11:34:15.451Z,997.92
2018-05-09T11:35:15.463Z,997.94
2018-05-09T11:36:15.477Z,997.86
2018-05-09T11:37:15.491Z,997.86
2018-05-09T11:38:15.504Z,997.84
2018-05-09T11:39:15.518Z,997.87
2018-05-09T11:40:15.531Z,997.88
2018-05-09T11:41:15.543Z,997.88
2018-05-09T11:42:15.556Z,997.82
2018-05-09T11:43:15.568Z,997.82
2018-05-09T11:44:15.580Z,997.80
2018-05-09T11:45:15.594Z,997.76
2018-05-09T11:46:15.606Z,997.78
2018-05-09T11:47:15.618Z,997.72
2018-05-09T11:48:15.630Z,997.77
2018-05-09T11:49:15.644Z,997.76
2018-05-09T11:50:15.655Z,997.71
2018-05-09T11:51:15.667Z,997.67
2018-05-09T11:52:15.679Z,997.63
2018-05-09T11:53:15.706Z,997.59
2018-05-09T11:54:15.703Z,997.60
2018-05-09T11:55:15.716Z,997.63
2018-05-09T11:56:15.728Z,997.66
2018-05-09T11:57:15.740Z,997.57
2018-05-09T11:58:15.755Z,997.55
2018-05-09T11:59:15.763Z,997.54
2018-05-09T12:00:15.775Z,997.55
2018-05-09T12:01:15.787Z,997.56
2018-05-09T12:02:15.806Z,997.54
2018-05-09T12:03:15.810Z,997.55
2018-05-09T12:04:15.824Z,997.48
2018-05-09T12:05:15.833Z,997.47
2018-05-09T12:06:15.844Z,997.45
2018-05-09T12:07:15.858Z,997.46
2018-05-09T12:08:15.873Z,997.44
2018-05-09T12:09:15.879Z,997.44
2018-05-09T12:10:15.904Z,997.45
2018-05-09T12:11:15.908Z,997.38
2018-05-09T12:12:15.913Z,997.37
2018-05-09T12:13:15.924Z,997.43
2018-05-09T12:14:15.938Z,997.39
2018-05-09T12:15:15.949Z,997.38
2018-05-09T12:16:15.958Z,997.43
2018-05-09T12:17:15.970Z,997.38
2018-05-09T12:18:15.982Z,997.34
2018-05-09T12:19:15.996Z,997.38
2018-05-09T12:20:16.005Z,997.39
2018-05-09T12:21:16.015Z,997.37
2018-05-09T12:22:16.032Z,997.38
2018-05-09T12:23:16.038Z,997.37
2018-05-09T12:24:16.049Z,997.37
2018-05-09T12:25:16.059Z,997.36
2018-05-09T12:26:16.075Z,997.34
2018-05-09T12:27:16.087Z,997.30
2018-05-09T12:28:16.092Z,997.38